createdAt,value
2019-04-11T00:00:33.824Z,18.97
2019-04-11T00:03:15.374Z,19.07
2019-04-11T00:05:57.206Z,19.80
2019-04-11T00:08:38.848Z,22.20
2019-04-11T00:11:20.074Z,21.50
2019-04-11T00:14:03.169Z,18.73
2019-04-11T00:16:45.639Z,21.10
2019-04-11T00:19:27.458Z,18.60
2019-04-11T00:22:09.119Z,20.27
2019-04-11T00:24:51.285Z,18.57
2019-04-11T00:27:33.143Z,18.53
2019-04-11T00:30:15.589Z,21.67
2019-04-11T00:32:58.053Z,21.30
2019-04-11T00:35:40.031Z,19.70
2019-04-11T00:38:21.461Z,21.37
2019-04-11T00:41:03.758Z,19.10
2019-04-11T00:43:45.732Z,19.83
2019-04-11T00:46:28.681Z,19.87
2019-04-11T00:49:10.338Z,19.13
2019-04-11T00:51:51.989Z,20.53
2019-04-11T00:54:33.796Z,21.53
2019-04-11T00:57:15.375Z,22.30
2019-04-11T00:59:58.279Z,19.87
2019-04-11T01:02:42.191Z,20.50
2019-04-11T01:05:23.542Z,22.27
2019-04-11T01:08:05.273Z,23.87
2019-04-11T01:10:47.807Z,22.40
2019-04-11T01:13:40.521Z,20.13
2019-04-11T01:19:22.538Z,19.90
2019-04-11T01:22:04.058Z,21.37
2019-04-11T01:24:46.099Z,23.53
2019-04-11T01:27:27.790Z,20.87
2019-04-11T01:30:11.715Z,20.60
2019-04-11T01:32:54.795Z,22.13
2019-04-11T01:35:37.325Z,21.37
2019-04-11T01:38:21.373Z,19.90
2019-04-11T01:41:02.613Z,20.63
2019-04-11T01:43:55.235Z,20.73
2019-04-11T01:46:26.914Z,20.43
2019-04-11T01:52:16.362Z,19.47
2019-04-11T01:54:58.148Z,23.57
2019-04-11T01:57:40.262Z,22.27
2019-04-11T02:00:41.726Z,21.27
2019-04-11T02:03:43.439Z,22.07
2019-04-11T02:06:26.077Z,22.90
2019-04-11T02:09:08.085Z,21.90
2019-04-11T02:11:49.946Z,22.10
2019-04-11T02:14:31.673Z,22.90
2019-04-11T02:17:14.641Z,21.93
2019-04-11T02:19:56.551Z,25.17
2019-04-11T02:22:40.421Z,26.73
2019-04-11T02:25:42.781Z,22.43
2019-04-11T02:28:24.598Z,25.10
2019-04-11T02:31:07.736Z,24.57
2019-04-11T02:33:50.862Z,25.17
2019-04-11T02:36:34.197Z,24.53
2019-04-11T02:39:19.207Z,23.77
2019-04-11T02:42:01.395Z,23.53
2019-04-11T02:44:59.879Z,24.17
2019-04-11T02:47:30.817Z,24.40
2019-04-11T02:50:12.404Z,23.27
2019-04-11T02:52:52.058Z,23.47
2019-04-11T02:55:35.752Z,26.40
2019-04-11T02:58:18.677Z,26.67
2019-04-11T03:01:05.283Z,23.83
2019-04-11T03:03:47.444Z,25.50
2019-04-11T03:06:30.839Z,27.03
2019-04-11T03:09:13.299Z,27.10
2019-04-11T03:11:56.667Z,23.43
2019-04-11T03:14:54.348Z,26.20
2019-04-11T03:17:26.569Z,27.50
2019-04-11T03:20:18.363Z,24.20
2019-04-11T03:22:54.107Z,24.87
2019-04-11T03:25:30.656Z,23.97
2019-04-11T03:28:18.347Z,26.90
2019-04-11T03:31:30.378Z,28.83
2019-04-11T03:37:08.836Z,24.63
2019-04-11T03:39:27.763Z,25.53
2019-04-11T03:42:08.010Z,26.33
2019-04-11T03:44:39.477Z,27.13
2019-04-11T03:47:31.088Z,24.77
2019-04-11T03:50:06.080Z,26.03
2019-04-11T03:52:43.095Z,26.97
2019-04-11T03:55:25.985Z,28.93
2019-04-11T03:58:08.550Z,24.10
2019-04-11T04:00:53.652Z,25.67
2019-04-11T04:03:34.197Z,26.30
2019-04-11T04:06:16.972Z,24.43
2019-04-11T04:08:58.576Z,24.60
2019-04-11T04:11:45.460Z,23.97
2019-04-11T04:15:08.480Z,24.90
2019-04-11T04:18:10.149Z,23.63
2019-04-11T04:21:11.217Z,25.87
2019-04-11T04:23:54.615Z,24.47
2019-04-11T04:26:35.994Z,25.17
2019-04-11T04:29:18.037Z,21.93
2019-04-11T04:32:00.045Z,24.00
2019-04-11T04:34:42.210Z,20.47
2019-04-11T04:37:26.691Z,25.00
2019-04-11T04:40:25.461Z,22.60
2019-04-11T04:42:55.451Z,21.73
2019-04-11T04:45:55.163Z,21.77
2019-04-11T04:48:22.335Z,23.30
2019-04-11T04:51:05.827Z,23.00
2019-04-11T04:53:45.172Z,25.77
2019-04-11T04:56:31.590Z,24.43
2019-04-11T04:59:12.382Z,26.13
2019-04-11T05:01:56.133Z,26.23
2019-04-11T05:04:38.416Z,25.17
2019-04-11T05:07:20.402Z,26.57
2019-04-11T05:10:03.276Z,25.60
2019-04-11T05:12:46.059Z,23.53
2019-04-11T05:15:28.184Z,24.03
2019-04-11T05:18:11.481Z,20.87
2019-04-11T05:20:52.883Z,20.47
2019-04-11T05:23:35.080Z,21.63
2019-04-11T05:26:17.300Z,18.73
2019-04-11T05:28:58.876Z,19.63
2019-04-11T05:31:40.794Z,20.50
2019-04-11T05:34:22.273Z,21.40
2019-04-11T05:37:04.130Z,20.13
2019-04-11T05:39:46.042Z,19.50
2019-04-11T05:42:27.721Z,19.80
2019-04-11T05:45:15.896Z,20.37
2019-04-11T05:47:55.157Z,20.37
2019-04-11T05:50:38.225Z,18.90
2019-04-11T05:53:21.114Z,20.10
2019-04-11T05:56:03.991Z,20.37
2019-04-11T05:58:47.500Z,20.80
2019-04-11T06:01:48.815Z,21.57
2019-04-11T06:04:52.867Z,19.13
2019-04-11T06:07:43.601Z,18.37
2019-04-11T06:14:05.178Z,17.93
2019-04-11T06:16:55.750Z,18.47
2019-04-11T06:19:37.960Z,19.77
2019-04-11T06:22:19.887Z,17.07
2019-04-11T06:25:06.672Z,17.53
2019-04-11T06:28:10.182Z,22.97
2019-04-11T06:31:11.004Z,17.57
2019-04-11T06:33:57.071Z,16.53
2019-04-11T06:36:41.205Z,17.10
2019-04-11T06:39:25.639Z,16.67
2019-04-11T06:45:55.037Z,16.77
2019-04-11T06:48:42.162Z,14.20
2019-04-11T06:51:28.150Z,15.13
2019-04-11T06:54:16.925Z,14.43
2019-04-11T06:57:23.658Z,16.20
2019-04-11T07:00:07.297Z,13.13
2019-04-11T07:02:50.814Z,16.00
2019-04-11T07:05:33.145Z,13.10
2019-04-11T07:14:31.231Z,14.43
2019-04-11T07:17:32.143Z,12.83
2019-04-11T07:20:33.571Z,13.37
2019-04-11T07:23:34.144Z,18.73
2019-04-11T07:26:35.176Z,13.17
2019-04-11T07:29:35.893Z,11.40
2019-04-11T07:32:17.945Z,12.40
2019-04-11T07:35:19.320Z,12.50
2019-04-11T07:38:01.190Z,13.20
2019-04-11T07:40:44.804Z,10.37
2019-04-11T07:43:24.931Z,15.27
2019-04-11T07:46:32.968Z,12.33
2019-04-11T07:49:15.909Z,10.53
2019-04-11T07:51:58.791Z,12.03
2019-04-11T07:54:41.033Z,10.43
2019-04-11T08:00:37.910Z,11.40
2019-04-11T08:03:28.311Z,10.67
2019-04-11T08:06:29.006Z,11.00
2019-04-11T08:09:29.754Z,13.77
2019-04-11T08:12:12.890Z,11.57
2019-04-11T08:15:15.404Z,12.00
2019-04-11T08:17:58.497Z,11.10
2019-04-11T08:23:49.291Z,9.43
2019-04-11T08:26:50.522Z,8.80
2019-04-11T08:29:32.407Z,11.83
2019-04-11T08:32:33.600Z,12.57
2019-04-11T08:35:35.013Z,9.60
2019-04-11T08:38:36.360Z,10.57
2019-04-11T08:41:37.971Z,9.83
2019-04-11T08:44:19.737Z,9.27
2019-04-11T08:47:02.641Z,9.00
2019-04-11T08:49:45.975Z,12.83
2019-04-11T08:52:32.859Z,9.93
2019-04-11T08:55:17.258Z,21.77
2019-04-11T08:58:00.423Z,10.20
2019-04-11T09:00:43.502Z,15.90
2019-04-11T09:03:44.112Z,10.33
2019-04-11T09:06:28.928Z,11.47
2019-04-11T09:09:29.456Z,13.37
2019-04-11T09:12:12.769Z,12.20
2019-04-11T09:15:14.612Z,9.13
2019-04-11T09:18:04.298Z,10.97
2019-04-11T09:20:42.071Z,10.13
2019-04-11T09:23:23.839Z,7.27
2019-04-11T09:26:25.659Z,8.33
2019-04-11T09:29:08.246Z,8.40
2019-04-11T09:31:51.769Z,8.47
2019-04-11T09:34:35.689Z,10.53
2019-04-11T09:37:19.223Z,7.60
2019-04-11T09:40:20.477Z,8.00
2019-04-11T09:43:22.196Z,8.83
2019-04-11T09:46:24.116Z,8.93
2019-04-11T09:49:24.847Z,8.10
2019-04-11T09:52:12.151Z,7.57
2019-04-11T09:55:13.258Z,7.53
2019-04-11T09:57:58.562Z,8.70
2019-04-11T10:03:48.616Z,7.63
2019-04-11T10:06:35.114Z,8.80
2019-04-11T10:09:17.104Z,9.87
2019-04-11T10:12:17.971Z,7.33
2019-04-11T10:15:00.269Z,7.93
2019-04-11T10:18:01.029Z,8.63
2019-04-11T10:20:42.639Z,9.73
2019-04-11T10:23:43.164Z,8.73
2019-04-11T10:26:26.207Z,8.47
2019-04-11T10:29:09.555Z,8.23
2019-04-11T10:31:56.851Z,7.40
2019-04-11T10:34:57.961Z,9.63
2019-04-11T10:37:42.102Z,7.60
2019-04-11T10:40:44.021Z,8.27
2019-04-11T10:43:26.551Z,10.57
2019-04-11T10:46:09.630Z,7.43
2019-04-11T10:48:52.894Z,7.97
2019-04-11T10:51:37.927Z,8.10
2019-04-11T10:54:19.743Z,7.33
2019-04-11T10:57:03.463Z,8.20
2019-04-11T10:59:46.972Z,7.63
2019-04-11T11:02:47.871Z,7.17
2019-04-11T11:05:30.998Z,7.97
2019-04-11T11:08:31.418Z,7.00
2019-04-11T11:11:15.674Z,7.90
2019-04-11T11:14:16.388Z,9.57
2019-04-11T11:17:02.427Z,7.50
2019-04-11T11:20:11.950Z,9.13
2019-04-11T11:23:09.081Z,7.03
2019-04-11T11:25:53.347Z,8.23
2019-04-11T11:28:24.392Z,6.97
2019-04-11T11:31:11.838Z,7.57
2019-04-11T11:33:42.971Z,7.20
2019-04-11T11:36:34.872Z,6.87
2019-04-11T11:39:08.882Z,7.40
2019-04-11T11:41:56.754Z,7.50
2019-04-11T11:44:35.020Z,6.70
2019-04-11T11:47:06.852Z,7.23
2019-04-11T11:49:46.767Z,7.20
2019-04-11T11:52:26.981Z,7.07
2019-04-11T11:54:57.814Z,7.57
2019-04-11T11:57:28.898Z,7.67
2019-04-11T12:00:02.996Z,7.63
2019-04-11T12:02:36.990Z,7.67
2019-04-11T12:05:12.723Z,8.67
2019-04-11T12:07:45.107Z,7.60
2019-04-11T12:10:19.569Z,9.80
2019-04-11T12:12:56.540Z,8.13
2019-04-11T12:15:43.789Z,7.40
2019-04-11T12:18:31.145Z,7.30
2019-04-11T12:21:18.569Z,9.13
2019-04-11T12:24:03.823Z,8.20
2019-04-11T12:26:31.259Z,6.73
2019-04-11T12:29:01.645Z,7.47
2019-04-11T12:31:36.416Z,7.63
2019-04-11T12:34:08.346Z,7.00
2019-04-11T12:36:43.086Z,6.93
2019-04-11T12:39:30.451Z,6.70
2019-04-11T12:42:01.569Z,8.20
2019-04-11T12:44:32.647Z,6.53
2019-04-11T12:47:13.536Z,6.97
2019-04-11T12:49:52.804Z,5.97
2019-04-11T12:52:20.522Z,6.83
2019-04-11T12:54:53.689Z,6.67
2019-04-11T12:57:41.312Z,6.42
2019-04-11T13:00:18.557Z,6.55
2019-04-11T13:03:02.143Z,8.00
2019-04-11T13:05:33.861Z,8.28
2019-04-11T13:08:05.160Z,6.40
2019-04-11T13:10:35.893Z,6.33
2019-04-11T13:13:06.974Z,5.70
2019-04-11T13:15:44.048Z,7.10
2019-04-11T13:18:31.486Z,7.08
2019-04-11T13:21:08.671Z,6.50
2019-04-11T13:23:58.378Z,7.83
2019-04-11T13:26:41.793Z,7.70
2019-04-11T13:29:25.663Z,7.03
2019-04-11T13:32:13.652Z,6.78
2019-04-11T13:34:45.252Z,6.65
2019-04-11T13:37:33.172Z,7.42
2019-04-11T13:40:10.588Z,7.05
2019-04-11T13:42:58.489Z,6.40
2019-04-11T13:45:30.087Z,6.17
2019-04-11T13:48:14.074Z,6.95
2019-04-11T13:50:44.029Z,10.03
2019-04-11T13:53:21.401Z,6.55
2019-04-11T13:55:50.796Z,7.15
2019-04-11T13:58:31.391Z,6.40
2019-04-11T14:01:01.516Z,6.58
2019-04-11T14:03:52.195Z,6.25
2019-04-11T14:06:21.662Z,7.15
2019-04-11T14:08:53.326Z,6.03
2019-04-11T14:11:27.984Z,6.22
2019-04-11T14:13:59.679Z,6.33
2019-04-11T14:16:30.037Z,9.38
2019-04-11T14:19:12.394Z,6.20
2019-04-11T14:21:44.325Z,7.30
2019-04-11T14:24:32.328Z,6.80
2019-04-11T14:27:04.047Z,9.83
2019-04-11T14:29:35.984Z,7.03
2019-04-11T14:32:25.821Z,6.05
2019-04-11T14:34:57.419Z,6.30
2019-04-11T14:37:38.079Z,7.58
2019-04-11T14:40:18.792Z,6.20
2019-04-11T14:42:54.967Z,6.62
2019-04-11T14:45:36.684Z,6.78
2019-04-11T14:48:14.022Z,6.72
2019-04-11T14:50:55.277Z,6.72
2019-04-11T14:53:35.933Z,7.05
2019-04-11T14:56:07.591Z,7.45
2019-04-11T14:58:55.514Z,6.78
2019-04-11T15:01:28.170Z,6.20
2019-04-11T15:04:16.560Z,6.35
2019-04-11T15:07:00.247Z,6.28
2019-04-11T15:09:48.319Z,7.25
2019-04-11T15:12:19.896Z,8.80
2019-04-11T15:15:07.874Z,7.35
2019-04-11T15:17:39.561Z,7.87
2019-04-11T15:20:14.959Z,7.22
2019-04-11T15:22:49.062Z,8.45
2019-04-11T15:25:20.753Z,8.63
2019-04-11T15:27:55.280Z,7.53
2019-04-11T15:30:43.353Z,8.33
2019-04-11T15:33:15.344Z,7.75
2019-04-11T15:35:46.937Z,7.67
2019-04-11T15:38:29.687Z,7.60
2019-04-11T15:41:01.590Z,7.85
2019-04-11T15:43:33.529Z,6.35
2019-04-11T15:46:05.346Z,6.67
2019-04-11T15:48:46.199Z,7.58
2019-04-11T15:51:26.816Z,8.38
2019-04-11T15:53:58.478Z,7.42
2019-04-11T15:56:42.338Z,6.80
2019-04-11T15:59:14.009Z,6.97
2019-04-11T16:02:03.807Z,6.85
2019-04-11T16:04:35.639Z,6.70
2019-04-11T16:07:13.234Z,6.80
2019-04-11T16:09:44.805Z,6.53
2019-04-11T16:12:19.496Z,6.75
2019-04-11T16:14:51.280Z,6.97
2019-04-11T16:17:25.830Z,6.80
2019-04-11T16:19:56.823Z,7.60
2019-04-11T16:22:34.512Z,6.95
2019-04-11T16:25:10.907Z,6.45
2019-04-11T16:28:00.310Z,6.45
2019-04-11T16:30:32.160Z,6.75
2019-04-11T16:33:06.445Z,6.30
2019-04-11T16:35:43.736Z,7.17
2019-04-11T16:38:19.133Z,7.37
2019-04-11T16:41:02.722Z,7.27
2019-04-11T16:43:32.685Z,6.00
2019-04-11T16:46:20.188Z,6.75
2019-04-11T16:48:49.559Z,7.30
2019-04-11T16:51:30.346Z,7.25
2019-04-11T16:53:50.610Z,6.97
2019-04-11T16:56:19.914Z,6.67
2019-04-11T16:58:50.303Z,6.33
2019-04-11T17:01:20.762Z,7.03
2019-04-11T17:03:54.824Z,8.10
2019-04-11T17:06:26.799Z,6.83
2019-04-11T17:09:00.520Z,7.13
2019-04-11T17:11:29.867Z,11.33
2019-04-11T17:13:59.272Z,8.07
2019-04-11T17:16:30.716Z,9.10
2019-04-11T17:19:00.377Z,9.53
2019-04-11T17:21:29.806Z,14.10
2019-04-11T17:23:59.179Z,10.33
2019-04-11T17:26:28.556Z,7.80
2019-04-11T17:29:17.284Z,10.57
2019-04-11T17:31:58.615Z,8.87
2019-04-11T17:34:40.657Z,24.97
2019-04-11T17:37:22.863Z,12.07
2019-04-11T17:40:06.596Z,16.20
2019-04-11T17:42:47.606Z,8.20
2019-04-11T17:45:16.993Z,8.90
2019-04-11T17:48:05.701Z,8.00
2019-04-11T17:50:48.631Z,10.90
2019-04-11T17:53:29.790Z,8.60
2019-04-11T17:56:11.151Z,8.13
2019-04-11T17:58:52.512Z,7.13
2019-04-11T18:01:22.129Z,10.70
2019-04-11T18:04:13.223Z,8.33
2019-04-11T18:07:16.990Z,9.73
2019-04-11T18:09:56.727Z,9.80
2019-04-11T18:12:38.765Z,7.70
2019-04-11T18:15:20.915Z,8.33
2019-04-11T18:18:03.224Z,7.40
2019-04-11T18:20:46.660Z,11.03
2019-04-11T18:23:27.915Z,7.50
2019-04-11T18:26:09.692Z,8.07
2019-04-11T18:28:52.515Z,7.80
2019-04-11T18:31:34.530Z,11.07
2019-04-11T18:34:16.565Z,9.10
2019-04-11T18:36:46.132Z,7.03
2019-04-11T18:39:36.071Z,7.80
2019-04-11T18:42:37.189Z,9.07
2019-04-11T18:45:18.373Z,7.70
2019-04-11T18:48:00.397Z,7.60
2019-04-11T18:50:41.812Z,8.17
2019-04-11T18:53:23.152Z,8.90
2019-04-11T18:56:04.807Z,7.63
2019-04-11T18:58:46.051Z,7.67
2019-04-11T19:01:39.247Z,9.67
2019-04-11T19:04:49.316Z,7.50
2019-04-11T19:07:30.918Z,7.33
2019-04-11T19:10:15.037Z,9.37
2019-04-11T19:12:55.972Z,8.43
2019-04-11T19:15:37.945Z,7.57
2019-04-11T19:18:19.718Z,8.17
2019-04-11T19:21:00.881Z,7.60
2019-04-11T19:23:45.120Z,9.13
2019-04-11T19:26:26.474Z,10.50
2019-04-11T19:29:08.645Z,7.90
2019-04-11T19:31:49.804Z,8.33
2019-04-11T19:34:31.875Z,8.27
2019-04-11T19:37:13.841Z,7.37
2019-04-11T19:39:55.856Z,8.00
2019-04-11T19:42:37.766Z,8.23
2019-04-11T19:45:19.495Z,8.20
2019-04-11T19:48:01.827Z,10.67
2019-04-11T19:50:43.810Z,7.17
2019-04-11T19:53:25.863Z,9.93
2019-04-11T19:56:12.412Z,7.73
2019-04-11T19:58:54.036Z,7.70
2019-04-11T20:01:36.224Z,8.53
2019-04-11T20:04:18.419Z,8.50
2019-04-11T20:07:00.337Z,7.97
2019-04-11T20:09:42.295Z,9.03
2019-04-11T20:12:23.984Z,8.80
2019-04-11T20:15:08.502Z,7.33
2019-04-11T20:17:51.933Z,10.97
2019-04-11T20:20:31.668Z,10.77
2019-04-11T20:23:13.630Z,10.20
2019-04-11T20:28:54.010Z,8.77
2019-04-11T20:31:35.241Z,9.13
2019-04-11T20:34:26.821Z,9.70
2019-04-11T20:37:00.362Z,8.20
2019-04-11T20:39:46.382Z,6.77
2019-04-11T20:42:25.407Z,7.13
2019-04-11T20:45:07.562Z,8.20
2019-04-11T20:50:29.750Z,7.13
2019-04-11T20:53:12.904Z,8.07
2019-04-11T20:55:54.672Z,6.33
2019-04-11T20:58:36.297Z,8.10
2019-04-11T21:01:18.495Z,9.93
2019-04-11T21:04:03.065Z,7.70
2019-04-11T21:06:43.135Z,7.10
2019-04-11T21:09:25.099Z,7.70
2019-04-11T21:12:07.494Z,7.43
2019-04-11T21:17:31.471Z,7.00
2019-04-11T21:20:13.514Z,7.73
2019-04-11T21:22:55.101Z,6.97
2019-04-11T21:25:37.105Z,8.03
2019-04-11T21:28:18.324Z,7.60
2019-04-11T21:31:00.789Z,8.30
2019-04-11T21:33:42.317Z,8.80
2019-04-11T21:36:26.803Z,10.47
2019-04-11T21:39:07.737Z,6.80
2019-04-11T21:41:49.759Z,7.47
2019-04-11T21:44:35.942Z,8.10
2019-04-11T21:47:14.366Z,7.80
2019-04-11T21:49:56.064Z,7.07
2019-04-11T21:52:38.095Z,8.67
2019-04-11T21:55:19.974Z,7.00
2019-04-11T21:58:01.731Z,8.43
2019-04-11T22:00:44.277Z,8.00
2019-04-11T22:03:26.158Z,9.53
2019-04-11T22:06:08.117Z,6.80
2019-04-11T22:08:50.158Z,7.60
2019-04-11T22:11:31.324Z,7.97
2019-04-11T22:14:13.301Z,8.60
2019-04-11T22:16:55.214Z,6.10
2019-04-11T22:19:36.565Z,9.60
2019-04-11T22:22:18.021Z,7.43
2019-04-11T22:24:59.750Z,9.23
2019-04-11T22:27:41.414Z,6.37
2019-04-11T22:30:25.084Z,6.37
2019-04-11T22:33:10.014Z,6.40
2019-04-11T22:35:52.006Z,8.10
2019-04-11T22:38:34.064Z,8.63
2019-04-11T22:41:15.874Z,6.63
2019-04-11T22:43:45.305Z,6.73
2019-04-11T22:50:01.253Z,7.00
2019-04-11T22:52:42.846Z,6.57
2019-04-11T22:55:12.259Z,8.97
2019-04-11T22:58:00.962Z,6.90
2019-04-11T23:00:45.227Z,7.83
2019-04-11T23:03:47.141Z,6.93
2019-04-11T23:06:28.734Z,6.83
2019-04-11T23:09:10.696Z,7.47
2019-04-11T23:11:51.937Z,7.47
2019-04-11T23:14:33.108Z,7.47
2019-04-11T23:17:15.332Z,6.27
2019-04-11T23:19:57.211Z,7.17
2019-04-11T23:22:40.051Z,6.07
2019-04-11T23:25:21.557Z,6.43
2019-04-11T23:28:03.540Z,7.43
2019-04-11T23:30:49.554Z,8.33
2019-04-11T23:33:27.667Z,6.23
2019-04-11T23:36:09.652Z,8.67
2019-04-11T23:38:52.730Z,7.13
2019-04-11T23:41:33.756Z,6.00
2019-04-11T23:44:18.041Z,7.13
2019-04-11T23:46:58.736Z,9.63
2019-04-11T23:49:40.733Z,6.30
2019-04-11T23:52:26.345Z,8.37
2019-04-11T23:55:06.285Z,6.57
2019-04-11T23:57:48.263Z,8.23
